createdAt,value
2019-01-11T00:01:11.005Z,7.53
2019-01-11T00:03:36.822Z,7.42
2019-01-11T00:06:03.308Z,8.43
2019-01-11T00:08:29.405Z,7.83
2019-01-11T00:10:55.252Z,8.50
2019-01-11T00:13:21.061Z,7.87
2019-01-11T00:15:46.940Z,7.63
2019-01-11T00:18:12.743Z,7.90
2019-01-11T00:20:38.872Z,12.50
2019-01-11T00:23:04.824Z,13.62
2019-01-11T00:25:30.659Z,11.77
2019-01-11T00:27:56.805Z,11.10
2019-01-11T00:30:22.950Z,13.13
2019-01-11T00:32:49.045Z,8.30
2019-01-11T00:35:14.897Z,7.58
2019-01-11T00:37:40.823Z,10.10
2019-01-11T00:40:07.069Z,9.13
2019-01-11T00:42:32.983Z,9.08
2019-01-11T00:45:03.746Z,7.90
2019-01-11T00:47:29.896Z,9.18
2019-01-11T00:49:58.485Z,8.73
2019-01-11T00:52:24.335Z,9.30
2019-01-11T00:54:52.956Z,8.83
2019-01-11T00:57:18.779Z,10.05
2019-01-11T00:59:47.497Z,9.13
2019-01-11T01:02:13.515Z,9.05
2019-01-11T01:04:42.241Z,9.10
2019-01-11T01:07:08.454Z,9.08
2019-01-11T01:09:34.287Z,9.15
2019-01-11T01:12:00.396Z,8.83
2019-01-11T01:14:26.468Z,10.18
2019-01-11T01:16:52.705Z,7.72
2019-01-11T01:19:20.060Z,8.98
2019-01-11T01:21:49.302Z,9.63
2019-01-11T01:24:20.128Z,9.30
2019-01-11T01:26:46.154Z,7.53
2019-01-11T01:29:12.093Z,9.40
2019-01-11T01:31:38.208Z,8.37
2019-01-11T01:34:04.433Z,8.83
2019-01-11T01:36:33.361Z,8.83
2019-01-11T01:38:59.227Z,8.60
2019-01-11T01:41:28.046Z,7.97
2019-01-11T01:43:53.923Z,9.20
2019-01-11T01:46:19.875Z,8.63
2019-01-11T01:48:45.713Z,8.47
2019-01-11T01:51:11.576Z,10.23
2019-01-11T01:53:37.548Z,7.83
2019-01-11T01:56:03.510Z,8.80
2019-01-11T01:58:34.188Z,7.97
2019-01-11T02:01:00.137Z,8.68
2019-01-11T02:03:28.810Z,7.80
2019-01-11T02:05:54.641Z,9.40
2019-01-11T02:08:57.462Z,7.90
2019-01-11T02:11:23.667Z,8.20
2019-01-11T02:13:49.540Z,8.70
2019-01-11T02:16:15.725Z,8.07
2019-01-11T02:18:41.540Z,9.83
2019-01-11T02:21:07.614Z,8.03
2019-01-11T02:23:33.514Z,7.40
2019-01-11T02:25:59.630Z,7.13
2019-01-11T02:28:25.826Z,9.08
2019-01-11T02:30:52.890Z,8.78
2019-01-11T02:33:24.832Z,8.05
2019-01-11T02:35:46.865Z,7.92
2019-01-11T02:38:12.681Z,8.27
2019-01-11T02:40:38.764Z,9.13
2019-01-11T02:43:04.686Z,7.97
2019-01-11T02:45:30.550Z,6.47
2019-01-11T02:47:56.383Z,5.90
2019-01-11T02:50:22.260Z,7.73
2019-01-11T02:52:48.088Z,6.97
2019-01-11T02:55:13.972Z,8.10
2019-01-11T02:57:39.799Z,7.67
2019-01-11T03:00:15.010Z,7.63
2019-01-11T03:02:41.022Z,8.30
2019-01-11T03:05:07.158Z,8.43
2019-01-11T03:07:33.009Z,7.33
2019-01-11T03:09:59.088Z,7.10
2019-01-11T03:12:24.919Z,7.40
2019-01-11T03:14:50.739Z,6.93
2019-01-11T03:17:16.687Z,8.63
2019-01-11T03:19:47.772Z,6.83
2019-01-11T03:22:10.673Z,7.10
2019-01-11T03:24:36.770Z,7.33
2019-01-11T03:27:02.711Z,6.85
2019-01-11T03:29:28.597Z,6.97
2019-01-11T03:31:54.429Z,7.27
2019-01-11T03:34:20.342Z,5.63
2019-01-11T03:36:46.180Z,6.00
2019-01-11T03:39:12.129Z,7.97
2019-01-11T03:41:40.158Z,6.17
2019-01-11T03:44:05.997Z,7.65
2019-01-11T03:46:32.067Z,7.27
2019-01-11T03:48:57.924Z,8.00
2019-01-11T03:51:23.813Z,7.03
2019-01-11T03:53:49.925Z,6.50
2019-01-11T03:56:15.747Z,7.22
2019-01-11T03:58:41.601Z,7.90
2019-01-11T04:01:07.796Z,7.60
2019-01-11T04:03:33.655Z,7.42
2019-01-11T04:05:59.569Z,7.70
2019-01-11T04:08:28.196Z,6.90
2019-01-11T04:10:54.041Z,7.12
2019-01-11T04:13:19.878Z,6.73
2019-01-11T04:15:46.020Z,6.60
2019-01-11T04:18:29.104Z,8.50
2019-01-11T04:20:56.059Z,8.55
2019-01-11T04:23:21.869Z,7.25
2019-01-11T04:25:47.678Z,8.43
2019-01-11T04:28:13.818Z,7.30
2019-01-11T04:30:39.658Z,7.47
2019-01-11T04:33:05.496Z,8.20
2019-01-11T04:35:31.711Z,8.10
2019-01-11T04:37:57.645Z,8.98
2019-01-11T04:40:23.792Z,9.03
2019-01-11T04:42:49.658Z,9.25
2019-01-11T04:45:15.979Z,8.97
2019-01-11T04:47:41.845Z,8.10
2019-01-11T04:50:10.264Z,7.73
2019-01-11T04:52:36.209Z,9.00
2019-01-11T04:55:03.266Z,8.78
2019-01-11T04:57:29.110Z,9.43
2019-01-11T04:59:55.236Z,8.20
2019-01-11T05:02:21.069Z,8.20
2019-01-11T05:04:46.931Z,4.97
2019-01-11T05:07:15.561Z,6.17
2019-01-11T05:09:41.651Z,5.10
2019-01-11T05:12:08.515Z,5.47
2019-01-11T05:14:34.325Z,5.53
2019-01-11T05:17:04.826Z,5.03
2019-01-11T05:19:30.981Z,7.03
2019-01-11T05:21:58.016Z,6.22
2019-01-11T05:24:23.857Z,6.05
2019-01-11T05:26:49.694Z,4.83
2019-01-11T05:29:15.534Z,5.17
2019-01-11T05:31:41.475Z,5.53
2019-01-11T05:34:10.344Z,5.13
2019-01-11T05:36:36.165Z,5.10
2019-01-11T05:39:06.370Z,4.87
2019-01-11T05:41:32.188Z,5.78
2019-01-11T05:44:01.370Z,6.00
2019-01-11T05:46:27.197Z,4.75
2019-01-11T05:48:55.898Z,5.07
2019-01-11T05:51:21.745Z,5.55
2019-01-11T05:53:50.341Z,5.87
2019-01-11T05:56:16.442Z,4.80
2019-01-11T05:58:47.212Z,3.85
2019-01-11T06:01:13.142Z,5.05
2019-01-11T06:03:39.246Z,4.53
2019-01-11T06:06:05.208Z,4.85
2019-01-11T06:08:31.312Z,5.97
2019-01-11T06:10:57.406Z,7.22
2019-01-11T06:13:23.534Z,6.05
2019-01-11T06:15:49.465Z,7.70
2019-01-11T06:18:16.359Z,7.30
2019-01-11T06:20:44.180Z,7.25
2019-01-11T06:23:10.319Z,7.65
2019-01-11T06:25:39.294Z,9.20
2019-01-11T06:28:05.121Z,6.40
2019-01-11T06:30:34.246Z,5.97
2019-01-11T06:33:00.081Z,7.30
2019-01-11T06:35:28.694Z,8.77
2019-01-11T06:37:55.028Z,9.68
2019-01-11T06:40:21.163Z,9.05
2019-01-11T06:42:47.251Z,7.65
2019-01-11T06:45:13.075Z,7.90
2019-01-11T06:47:41.997Z,9.83
2019-01-11T06:50:13.378Z,8.45
2019-01-11T06:52:39.604Z,8.35
2019-01-11T06:55:06.146Z,9.80
2019-01-11T06:57:32.257Z,8.18
2019-01-11T06:59:58.177Z,9.00
2019-01-11T07:02:26.759Z,9.63
2019-01-11T07:04:52.590Z,13.38
2019-01-11T07:07:21.610Z,16.77
2019-01-11T07:09:48.067Z,14.25
2019-01-11T07:12:14.173Z,14.55
2019-01-11T07:14:39.993Z,15.70
2019-01-11T07:17:05.841Z,17.00
2019-01-11T07:19:31.927Z,13.77
2019-01-11T07:21:57.777Z,9.53
2019-01-11T07:24:26.826Z,8.83
2019-01-11T07:26:53.250Z,8.40
2019-01-11T07:29:22.133Z,6.50
2019-01-11T07:31:48.191Z,6.55
2019-01-11T07:34:16.812Z,6.45
2019-01-11T07:36:42.852Z,6.10
2019-01-11T07:39:14.032Z,7.08
2019-01-11T07:41:39.872Z,7.40
2019-01-11T07:44:06.009Z,5.67
2019-01-11T07:46:31.875Z,5.72
2019-01-11T07:49:00.955Z,5.73
2019-01-11T07:51:26.895Z,5.50
2019-01-11T07:53:52.770Z,6.10
2019-01-11T07:56:18.577Z,5.00
2019-01-11T07:58:44.411Z,5.70
2019-01-11T08:01:12.138Z,5.67
2019-01-11T08:03:38.074Z,6.75
2019-01-11T08:06:07.010Z,6.50
2019-01-11T08:08:33.175Z,6.70
2019-01-11T08:11:02.861Z,5.95
2019-01-11T08:13:29.049Z,5.40
2019-01-11T08:15:55.181Z,6.92
2019-01-11T08:18:21.284Z,6.22
2019-01-11T08:20:55.945Z,5.58
2019-01-11T08:23:17.924Z,5.90
2019-01-11T08:25:44.958Z,6.50
2019-01-11T08:28:12.377Z,7.58
2019-01-11T08:30:38.473Z,6.60
2019-01-11T08:33:04.325Z,6.55
2019-01-11T08:35:30.150Z,7.60
2019-01-11T08:37:55.957Z,5.97
2019-01-11T08:40:21.810Z,6.30
2019-01-11T08:42:52.174Z,6.70
2019-01-11T08:45:18.308Z,5.92
2019-01-11T08:47:47.514Z,6.47
2019-01-11T08:50:16.284Z,5.55
2019-01-11T08:52:42.196Z,6.03
2019-01-11T08:55:08.401Z,6.00
2019-01-11T08:57:37.388Z,6.28
2019-01-11T09:00:07.016Z,5.33
2019-01-11T09:02:33.158Z,5.40
2019-01-11T09:04:59.081Z,6.12
2019-01-11T09:07:24.896Z,5.60
2019-01-11T09:09:50.997Z,6.63
2019-01-11T09:12:16.919Z,5.55
2019-01-11T09:14:46.778Z,5.43
2019-01-11T09:17:13.087Z,7.05
2019-01-11T09:19:38.921Z,5.60
2019-01-11T09:22:05.118Z,6.70
2019-01-11T09:24:31.024Z,5.58
2019-01-11T09:26:56.883Z,6.00
2019-01-11T09:29:25.751Z,5.80
2019-01-11T09:31:51.823Z,6.05
2019-01-11T09:34:20.711Z,6.47
2019-01-11T09:36:46.497Z,6.20
2019-01-11T09:39:17.683Z,7.47
2019-01-11T09:41:43.550Z,6.80
2019-01-11T09:44:09.340Z,7.27
2019-01-11T09:46:35.489Z,8.00
2019-01-11T09:49:01.698Z,6.80
2019-01-11T09:51:27.487Z,5.97
2019-01-11T09:53:53.329Z,6.00
2019-01-11T09:56:22.449Z,6.00
2019-01-11T09:58:48.215Z,5.72
2019-01-11T10:01:17.184Z,6.37
2019-01-11T10:03:42.997Z,5.53
2019-01-11T10:06:11.723Z,6.00
2019-01-11T10:08:37.627Z,5.30
2019-01-11T10:11:06.773Z,4.33
2019-01-11T10:13:32.744Z,4.92
2019-01-11T10:16:00.838Z,7.58
2019-01-11T10:18:26.656Z,6.45
2019-01-11T10:20:52.521Z,6.77
2019-01-11T10:23:18.453Z,6.33
2019-01-11T10:25:44.328Z,6.40
2019-01-11T10:28:12.008Z,15.80
2019-01-11T10:30:38.004Z,8.23
2019-01-11T10:33:06.844Z,6.07
2019-01-11T10:35:32.677Z,6.35
2019-01-11T10:38:01.515Z,7.07
2019-01-11T10:40:27.622Z,5.97
2019-01-11T10:42:56.870Z,5.67
2019-01-11T10:45:22.993Z,7.03
2019-01-11T10:47:51.990Z,6.85
2019-01-11T10:50:18.220Z,5.92
2019-01-11T10:52:46.164Z,6.55
2019-01-11T10:55:16.086Z,5.75
2019-01-11T10:57:42.614Z,5.42
2019-01-11T11:00:17.240Z,5.83
2019-01-11T11:02:43.333Z,6.33
2019-01-11T11:05:09.469Z,6.83
2019-01-11T11:07:35.295Z,6.12
2019-01-11T11:10:01.527Z,6.60
2019-01-11T11:12:28.189Z,6.08
2019-01-11T11:14:54.220Z,6.25
2019-01-11T11:17:20.089Z,6.40
2019-01-11T11:19:45.937Z,5.97
2019-01-11T11:22:11.784Z,4.73
2019-01-11T11:24:37.589Z,5.00
2019-01-11T11:27:03.855Z,5.20
2019-01-11T11:29:31.394Z,4.87
2019-01-11T11:31:57.244Z,5.40
2019-01-11T11:34:24.061Z,6.03
2019-01-11T11:36:50.154Z,5.55
2019-01-11T11:39:16.100Z,5.62
2019-01-11T11:41:43.114Z,5.70
2019-01-11T11:44:08.932Z,5.40
2019-01-11T11:46:38.105Z,6.57
2019-01-11T11:49:03.921Z,6.55
2019-01-11T11:51:32.828Z,5.60
2019-01-11T11:53:58.942Z,5.60
2019-01-11T11:56:28.043Z,5.65
2019-01-11T11:58:53.888Z,5.55
2019-01-11T12:01:22.474Z,7.53
2019-01-11T12:03:48.565Z,6.17
2019-01-11T12:06:17.750Z,6.53
2019-01-11T12:08:43.605Z,5.12
2019-01-11T12:11:09.684Z,7.10
2019-01-11T12:13:35.547Z,6.30
2019-01-11T12:16:01.384Z,5.57
2019-01-11T12:18:30.412Z,6.60
2019-01-11T12:20:56.217Z,6.20
2019-01-11T12:23:24.866Z,6.10
2019-01-11T12:25:50.969Z,6.22
2019-01-11T12:28:18.057Z,6.40
2019-01-11T12:30:43.905Z,6.30
2019-01-11T12:33:12.849Z,7.80
2019-01-11T12:35:38.667Z,5.37
2019-01-11T12:38:13.545Z,6.67
2019-01-11T12:40:35.653Z,6.08
2019-01-11T12:43:01.515Z,6.30
2019-01-11T12:45:27.341Z,6.97
2019-01-11T12:47:53.176Z,6.90
2019-01-11T12:50:21.099Z,6.80
2019-01-11T12:52:47.154Z,5.45
2019-01-11T12:55:13.233Z,6.33
2019-01-11T12:57:39.161Z,7.20
2019-01-11T13:00:13.877Z,6.33
2019-01-11T13:02:40.111Z,7.42
2019-01-11T13:05:08.774Z,6.60
2019-01-11T13:07:34.941Z,6.92
2019-01-11T13:10:00.810Z,6.50
2019-01-11T13:12:27.399Z,8.57
2019-01-11T13:14:53.571Z,8.73
2019-01-11T13:17:19.406Z,6.50
2019-01-11T13:19:48.435Z,6.63
2019-01-11T13:22:14.950Z,6.62
2019-01-11T13:24:40.790Z,6.67
2019-01-11T13:27:06.642Z,7.20
2019-01-11T13:29:32.914Z,6.80
2019-01-11T13:31:58.776Z,5.75
2019-01-11T13:34:24.596Z,6.47
2019-01-11T13:36:54.085Z,6.27
2019-01-11T13:39:20.265Z,7.25
2019-01-11T13:41:48.950Z,6.47
2019-01-11T13:44:14.753Z,7.20
2019-01-11T13:46:42.492Z,6.13
2019-01-11T13:49:08.306Z,6.95
2019-01-11T13:51:37.197Z,6.70
2019-01-11T13:54:03.266Z,6.05
2019-01-11T13:56:33.742Z,6.25
2019-01-11T13:58:59.893Z,7.35
2019-01-11T14:01:26.114Z,7.00
2019-01-11T14:03:52.202Z,6.30
2019-01-11T14:06:18.101Z,6.12
2019-01-11T14:08:44.156Z,6.70
2019-01-11T14:11:10.027Z,6.47
2019-01-11T14:13:39.223Z,5.00
2019-01-11T14:16:05.091Z,6.25
2019-01-11T14:18:33.701Z,6.43
2019-01-11T14:20:59.554Z,5.72
2019-01-11T14:23:28.441Z,5.20
2019-01-11T14:25:54.551Z,7.50
2019-01-11T14:28:23.148Z,6.50
2019-01-11T14:30:48.945Z,5.90
2019-01-11T14:33:17.780Z,5.50
2019-01-11T14:35:43.806Z,7.58
2019-01-11T14:38:09.641Z,5.90
2019-01-11T14:40:35.597Z,5.90
2019-01-11T14:43:01.554Z,6.10
2019-01-11T14:45:29.219Z,5.63
2019-01-11T14:47:55.037Z,6.00
2019-01-11T14:50:24.258Z,5.67
2019-01-11T14:52:50.169Z,5.47
2019-01-11T14:55:19.464Z,6.53
2019-01-11T14:57:45.638Z,5.37
2019-01-11T15:00:18.473Z,5.15
2019-01-11T15:02:44.376Z,5.20
2019-01-11T15:05:11.716Z,5.40
2019-01-11T15:07:37.872Z,4.92
2019-01-11T15:10:07.204Z,5.97
2019-01-11T15:12:34.194Z,4.97
2019-01-11T15:15:00.050Z,6.08
2019-01-11T15:17:25.869Z,6.30
2019-01-11T15:19:51.981Z,7.00
2019-01-11T15:22:17.849Z,5.60
2019-01-11T15:24:43.970Z,6.10
2019-01-11T15:27:09.809Z,5.25
2019-01-11T15:29:35.680Z,7.87
2019-01-11T15:32:05.905Z,4.93
2019-01-11T15:34:31.742Z,7.37
2019-01-11T15:37:00.379Z,9.50
2019-01-11T15:39:26.464Z,10.98
2019-01-11T15:41:55.216Z,7.10
2019-01-11T15:44:22.177Z,9.10
2019-01-11T15:46:47.996Z,9.98
2019-01-11T15:49:14.147Z,5.77
2019-01-11T15:51:40.292Z,4.55
2019-01-11T15:54:06.114Z,6.95
2019-01-11T15:56:32.029Z,6.10
2019-01-11T15:59:00.622Z,5.60
2019-01-11T16:01:26.978Z,4.30
2019-01-11T16:03:55.580Z,5.70
2019-01-11T16:06:26.438Z,5.33
2019-01-11T16:09:15.374Z,4.00
2019-01-11T16:11:48.059Z,4.47
2019-01-11T16:14:23.740Z,4.03
2019-01-11T16:16:49.810Z,6.58
2019-01-11T16:19:15.912Z,6.00
2019-01-11T16:21:41.770Z,6.42
2019-01-11T16:24:08.605Z,5.73
2019-01-11T16:26:34.874Z,5.58
2019-01-11T16:29:00.698Z,5.42
2019-01-11T16:31:26.568Z,5.33
2019-01-11T16:33:53.674Z,4.93
2019-01-11T16:36:19.759Z,4.75
2019-01-11T16:38:45.692Z,15.45
2019-01-11T16:41:11.559Z,5.20
2019-01-11T16:43:37.418Z,6.07
2019-01-11T16:46:03.235Z,6.73
2019-01-11T16:48:29.056Z,4.97
2019-01-11T16:50:54.891Z,8.97
2019-01-11T16:53:20.698Z,6.40
2019-01-11T16:55:46.657Z,5.70
2019-01-11T16:58:12.502Z,9.63
2019-01-11T17:00:38.609Z,20.97
2019-01-11T17:03:04.450Z,5.75
2019-01-11T17:05:30.253Z,6.33
2019-01-11T17:07:56.378Z,6.20
2019-01-11T17:10:22.230Z,6.50
2019-01-11T17:12:48.322Z,5.40
2019-01-11T17:15:16.170Z,5.00
2019-01-11T17:17:42.052Z,10.63
2019-01-11T17:20:11.400Z,22.40
2019-01-11T17:22:37.220Z,6.80
2019-01-11T17:25:03.853Z,6.13
2019-01-11T17:27:29.912Z,5.15
2019-01-11T17:29:55.776Z,6.10
2019-01-11T17:32:21.667Z,6.70
2019-01-11T17:34:47.533Z,5.33
2019-01-11T17:37:13.601Z,5.17
2019-01-11T17:39:39.765Z,4.50
2019-01-11T17:42:05.641Z,4.05
2019-01-11T17:44:31.470Z,4.60
2019-01-11T17:46:57.536Z,4.60
2019-01-11T17:49:24.184Z,5.12
2019-01-11T17:51:50.027Z,5.10
2019-01-11T17:54:15.886Z,4.10
2019-01-11T17:56:41.704Z,13.20
2019-01-11T17:59:09.433Z,21.73
2019-01-11T18:01:35.296Z,7.97
2019-01-11T18:04:01.210Z,12.00
2019-01-11T18:06:27.341Z,20.43
2019-01-11T18:08:55.969Z,8.05
2019-01-11T18:11:21.788Z,16.80
2019-01-11T18:13:50.376Z,24.83
2019-01-11T18:16:16.191Z,9.33
2019-01-11T18:18:42.045Z,11.30
2019-01-11T18:21:07.852Z,16.17
2019-01-11T18:23:33.696Z,18.17
2019-01-11T18:26:02.569Z,10.93
2019-01-11T18:28:28.424Z,9.95
2019-01-11T18:30:57.037Z,8.10
2019-01-11T18:33:22.867Z,6.75
2019-01-11T18:35:51.489Z,7.70
2019-01-11T18:38:17.307Z,6.40
2019-01-11T18:40:46.145Z,8.17
2019-01-11T18:43:11.962Z,6.12
2019-01-11T18:45:41.541Z,5.73
2019-01-11T18:48:07.341Z,5.08
2019-01-11T18:50:36.414Z,4.80
2019-01-11T18:53:02.360Z,6.15
2019-01-11T18:55:28.168Z,5.27
2019-01-11T18:57:54.369Z,6.53
2019-01-11T19:00:22.437Z,6.80
2019-01-11T19:02:48.252Z,6.17
2019-01-11T19:05:14.594Z,5.87
2019-01-11T19:07:46.106Z,6.50
2019-01-11T19:10:13.963Z,6.47
2019-01-11T19:12:39.811Z,7.20
2019-01-11T19:15:11.640Z,6.53
2019-01-11T19:17:37.459Z,6.12
2019-01-11T19:20:09.965Z,5.57
2019-01-11T19:22:36.078Z,6.03
2019-01-11T19:25:03.297Z,5.22
2019-01-11T19:27:29.116Z,6.40
2019-01-11T19:29:54.951Z,6.70
2019-01-11T19:32:20.797Z,8.43
2019-01-11T19:34:46.639Z,8.30
2019-01-11T19:37:12.461Z,7.60
2019-01-11T19:39:38.293Z,7.17
2019-01-11T19:42:04.354Z,6.37
2019-01-11T19:44:30.182Z,5.35
2019-01-11T19:46:55.987Z,7.60
2019-01-11T19:49:21.838Z,8.73
2019-01-11T19:51:47.644Z,10.17
2019-01-11T19:54:16.481Z,6.87
2019-01-11T19:56:42.381Z,7.20
2019-01-11T19:59:11.265Z,5.97
2019-01-11T20:01:37.113Z,6.17
2019-01-11T20:04:06.139Z,7.30
2019-01-11T20:06:32.334Z,8.00
2019-01-11T20:08:58.203Z,8.50
2019-01-11T20:11:24.021Z,7.40
2019-01-11T20:13:49.877Z,6.37
2019-01-11T20:16:18.466Z,5.73
2019-01-11T20:18:44.556Z,5.87
2019-01-11T20:21:13.535Z,5.65
2019-01-11T20:23:39.387Z,5.03
2019-01-11T20:26:08.255Z,4.40
2019-01-11T20:28:34.110Z,4.25
2019-01-11T20:31:01.382Z,4.60
2019-01-11T20:33:27.195Z,11.38
2019-01-11T20:35:56.090Z,12.20
2019-01-11T20:38:21.928Z,8.15
2019-01-11T20:40:51.076Z,5.90
2019-01-11T20:43:16.907Z,3.77
2019-01-11T20:45:42.882Z,5.40
2019-01-11T20:48:09.093Z,4.28
2019-01-11T20:50:35.222Z,4.55
2019-01-11T20:53:04.554Z,5.60
2019-01-11T20:55:30.517Z,4.65
2019-01-11T20:57:57.286Z,4.33
2019-01-11T21:00:25.827Z,4.35
2019-01-11T21:02:51.923Z,3.30
2019-01-11T21:05:17.759Z,4.75
2019-01-11T21:07:48.566Z,5.97
2019-01-11T21:10:14.751Z,7.28
2019-01-11T21:12:43.446Z,5.33
2019-01-11T21:15:15.382Z,4.50
2019-01-11T21:17:41.688Z,7.05
2019-01-11T21:20:10.597Z,4.10
2019-01-11T21:22:36.417Z,3.40
2019-01-11T21:25:05.255Z,3.50
2019-01-11T21:27:31.358Z,3.70
2019-01-11T21:29:57.142Z,3.98
2019-01-11T21:32:22.987Z,3.37
2019-01-11T21:34:48.832Z,3.83
2019-01-11T21:37:14.649Z,2.63
2019-01-11T21:39:40.477Z,2.90
2019-01-11T21:42:06.600Z,2.23
2019-01-11T21:44:32.439Z,6.03
2019-01-11T21:46:58.289Z,2.43
2019-01-11T21:49:26.876Z,2.03
2019-01-11T21:51:52.697Z,6.83
2019-01-11T21:54:21.326Z,12.53
2019-01-11T21:56:47.184Z,4.70
2019-01-11T21:59:13.324Z,16.77
2019-01-11T22:01:39.163Z,7.10
2019-01-11T22:04:04.977Z,6.23
2019-01-11T22:06:33.117Z,4.83
2019-01-11T22:08:58.978Z,3.83
2019-01-11T22:11:29.793Z,3.33
2019-01-11T22:13:55.606Z,3.50
2019-01-11T22:16:24.828Z,4.97
2019-01-11T22:18:50.934Z,4.90
2019-01-11T22:21:16.781Z,7.25
2019-01-11T22:23:42.634Z,4.20
2019-01-11T22:26:15.671Z,3.93
2019-01-11T22:28:41.518Z,4.70
2019-01-11T22:31:07.353Z,3.10
2019-01-11T22:33:33.221Z,2.97
2019-01-11T22:35:59.087Z,3.13
2019-01-11T22:38:25.213Z,2.27
2019-01-11T22:40:51.349Z,2.45
2019-01-11T22:43:20.244Z,2.65
2019-01-11T22:45:46.111Z,3.60
2019-01-11T22:48:14.705Z,4.73
2019-01-11T22:50:40.642Z,4.80
2019-01-11T22:53:09.564Z,5.00
2019-01-11T22:55:35.644Z,3.05
2019-01-11T22:58:04.724Z,3.70
2019-01-11T23:00:39.206Z,3.77
2019-01-11T23:03:08.988Z,2.72
2019-01-11T23:05:36.736Z,3.08
2019-01-11T23:08:03.125Z,3.50
2019-01-11T23:10:38.338Z,3.00
2019-01-11T23:13:04.465Z,2.92
2019-01-11T23:15:30.373Z,2.80
2019-01-11T23:17:56.210Z,2.70
2019-01-11T23:20:22.307Z,3.00
2019-01-11T23:22:48.258Z,3.45
2019-01-11T23:25:14.092Z,2.90
2019-01-11T23:27:40.190Z,2.60
2019-01-11T23:30:12.510Z,2.40
2019-01-11T23:32:38.335Z,3.08
2019-01-11T23:35:04.630Z,3.00
2019-01-11T23:37:30.711Z,3.65
2019-01-11T23:39:56.514Z,2.95
2019-01-11T23:42:22.335Z,3.17
2019-01-11T23:44:48.167Z,3.10
2019-01-11T23:47:13.971Z,3.33
2019-01-11T23:49:39.802Z,4.20
2019-01-11T23:52:05.864Z,3.90
2019-01-11T23:54:31.678Z,4.90
2019-01-11T23:56:57.878Z,4.73
2019-01-11T23:59:23.677Z,3.35
